Time;durP1;ratioP1;P1;durP2;ratioP2;P2;SDS_P1;SDS_P2;PMS_P1;PMS_P2;Temp;Humidity;BMP_temperature;BMP_pressure;BME280_temperature;BME280_humidity;BME280_pressure;Samples;Min_cycle;Max_cycle;Signal;HPM_P1;HPM_P2
2022/05/13 00:02:22;;;;;;;10.63;5.55;;;;;;;;;;4954094;28;20668;-69
2022/05/13 00:04:48;;;;;;;6.70;5.90;;;;;;;;;;4940142;28;20042;-69
2022/05/13 00:07:13;;;;;;;9.95;5.50;;;;;;;;;;4947149;28;20050;-68
2022/05/13 00:09:57;;;;;;;6.45;5.70;;;;;;;;;;4941815;28;20221;-69
2022/05/13 00:12:24;;;;;;;9.05;5.70;;;;;;;;;;4943792;28;20142;-68
2022/05/13 00:14:51;;;;;;;6.95;5.82;;;;;;;;;;4947341;28;20039;-68
2022/05/13 00:17:17;;;;;;;10.30;5.60;;;;;;;;;;4956478;28;20492;-69
2022/05/13 00:19:43;;;;;;;7.30;4.97;;;;;;;;;;4942287;28;20070;-68
2022/05/13 00:22:08;;;;;;;6.75;5.20;;;;;;;;;;4949260;28;20130;-68
2022/05/13 00:24:34;;;;;;;7.05;5.07;;;;;;;;;;4944722;28;20117;-69
2022/05/13 00:26:59;;;;;;;6.70;5.28;;;;;;;;;;4946807;28;20047;-69
2022/05/13 00:29:25;;;;;;;7.72;5.72;;;;;;;;;;4945639;28;20043;-68
2022/05/13 00:31:50;;;;;;;9.23;6.32;;;;;;;;;;4947768;28;20027;-68
2022/05/13 00:34:16;;;;;;;9.35;6.32;;;;;;;;;;4954122;28;20119;-68
2022/05/13 00:36:41;;;;;;;6.93;5.90;;;;;;;;;;4949561;28;20430;-69
2022/05/13 00:39:07;;;;;;;10.73;5.80;;;;;;;;;;4934059;28;20177;-68
2022/05/13 00:41:34;;;;;;;10.32;6.05;;;;;;;;;;4951676;28;20027;-68
2022/05/13 00:43:59;;;;;;;9.57;6.00;;;;;;;;;;4951142;28;20046;-68
2022/05/13 00:46:28;;;;;;;11.02;6.05;;;;;;;;;;4949359;28;20046;-68
2022/05/13 00:48:54;;;;;;;8.85;5.65;;;;;;;;;;4957066;28;20031;-69
2022/05/13 00:51:27;;;;;;;7.82;5.57;;;;;;;;;;4947338;28;20062;-69
2022/05/13 00:53:55;;;;;;;7.45;5.63;;;;;;;;;;4942060;28;20031;-69
2022/05/13 00:56:21;;;;;;;12.30;6.85;;;;;;;;;;4952105;28;20047;-68
2022/05/13 00:58:52;;;;;;;12.02;6.10;;;;;;;;;;4953263;28;20110;-69
2022/05/13 01:01:17;;;;;;;9.85;6.35;;;;;;;;;;4953366;28;20045;-69
2022/05/13 01:03:44;;;;;;;6.32;5.72;;;;;;;;;;4950793;28;20035;-69
2022/05/13 01:06:14;;;;;;;7.88;5.93;;;;;;;;;;4954004;28;20038;-69
2022/05/13 01:08:40;;;;;;;13.75;5.88;;;;;;;;;;4948151;28;20519;-68
2022/05/13 01:11:10;;;;;;;6.38;5.72;;;;;;;;;;4953687;28;20066;-68
2022/05/13 01:13:37;;;;;;;6.35;5.43;;;;;;;;;;4945942;28;20077;-68
2022/05/13 01:16:03;;;;;;;7.93;5.60;;;;;;;;;;4938647;28;20398;-69
2022/05/13 01:18:36;;;;;;;6.30;5.25;;;;;;;;;;4945950;28;20542;-69
2022/05/13 01:21:05;;;;;;;6.35;5.60;;;;;;;;;;4956304;28;20122;-68
2022/05/13 01:23:40;;;;;;;11.95;7.13;;;;;;;;;;4954670;28;20038;-68
2022/05/13 01:26:07;;;;;;;11.15;7.00;;;;;;;;;;4942341;28;20035;-69
2022/05/13 01:28:42;;;;;;;12.25;7.65;;;;;;;;;;4941476;28;20066;-68
2022/05/13 01:31:11;;;;;;;10.70;7.13;;;;;;;;;;4945541;28;21077;-69
2022/05/13 01:33:39;;;;;;;10.32;6.43;;;;;;;;;;4945726;28;20035;-68
2022/05/13 01:36:05;;;;;;;7.82;6.43;;;;;;;;;;4946476;28;20398;-69
2022/05/13 01:38:37;;;;;;;8.15;6.78;;;;;;;;;;4944132;28;20035;-68
2022/05/13 01:41:04;;;;;;;10.43;7.60;;;;;;;;;;4956129;28;20046;-69
2022/05/13 01:43:30;;;;;;;13.35;9.05;;;;;;;;;;4951051;28;20072;-68
2022/05/13 01:45:56;;;;;;;11.23;8.50;;;;;;;;;;4960716;28;20468;-68
2022/05/13 01:48:23;;;;;;;13.65;8.57;;;;;;;;;;4947938;28;20440;-68
2022/05/13 01:50:49;;;;;;;9.45;7.93;;;;;;;;;;4948594;28;20213;-68
2022/05/13 01:53:14;;;;;;;7.88;6.97;;;;;;;;;;4946133;28;20707;-68
2022/05/13 01:55:42;;;;;;;9.07;7.28;;;;;;;;;;4956307;28;20070;-68
2022/05/13 01:58:13;;;;;;;11.13;7.28;;;;;;;;;;4963569;28;20496;-68
2022/05/13 02:00:39;;;;;;;6.85;6.10;;;;;;;;;;4955722;28;20047;-69
2022/05/13 02:05:50;;;;;;;11.43;6.70;;;;;;;;;;4958865;28;20125;-68
2022/05/13 02:08:16;;;;;;;7.43;5.95;;;;;;;;;;4954888;28;20118;-69
2022/05/13 02:10:42;;;;;;;8.13;6.30;;;;;;;;;;4951173;28;20857;-68
2022/05/13 02:13:08;;;;;;;9.85;6.40;;;;;;;;;;4944385;28;20043;-68
2022/05/13 02:15:33;;;;;;;7.45;6.35;;;;;;;;;;4944614;28;20031;-68
2022/05/13 02:17:59;;;;;;;9.77;6.72;;;;;;;;;;4953921;28;20035;-68
2022/05/13 02:20:24;;;;;;;13.85;6.63;;;;;;;;;;4945478;28;20464;-68
2022/05/13 02:22:50;;;;;;;6.28;5.40;;;;;;;;;;4952162;28;20035;-69
2022/05/13 02:25:16;;;;;;;7.93;4.97;;;;;;;;;;4948267;28;20043;-68
2022/05/13 02:27:41;;;;;;;6.22;5.13;;;;;;;;;;4945362;28;20035;-68
2022/05/13 02:30:07;;;;;;;7.15;5.70;;;;;;;;;;4951416;28;20049;-68
2022/05/13 02:32:33;;;;;;;8.50;5.47;;;;;;;;;;4944929;28;20046;-68
2022/05/13 02:34:58;;;;;;;7.38;5.30;;;;;;;;;;4950615;28;20506;-68
2022/05/13 02:37:24;;;;;;;8.73;4.95;;;;;;;;;;4948391;28;20045;-68
2022/05/13 02:39:49;;;;;;;9.27;5.65;;;;;;;;;;4950350;28;20045;-68
2022/05/13 02:42:15;;;;;;;7.78;5.80;;;;;;;;;;4954992;28;20102;-67
2022/05/13 02:44:40;;;;;;;11.02;5.88;;;;;;;;;;4950943;28;20031;-68
2022/05/13 02:47:06;;;;;;;7.63;6.03;;;;;;;;;;4952381;28;20042;-68
2022/05/13 02:49:32;;;;;;;13.50;6.28;;;;;;;;;;4954770;28;20031;-68
2022/05/13 02:51:57;;;;;;;9.98;5.90;;;;;;;;;;4954609;28;20436;-68
2022/05/13 02:54:22;;;;;;;8.88;5.63;;;;;;;;;;4947182;28;20053;-68
2022/05/13 02:56:48;;;;;;;7.95;5.88;;;;;;;;;;4952977;28;20141;-68
2022/05/13 02:59:13;;;;;;;8.15;6.05;;;;;;;;;;4957924;28;20042;-68
2022/05/13 03:01:39;;;;;;;9.18;5.75;;;;;;;;;;4949198;28;20031;-67
2022/05/13 03:04:04;;;;;;;9.07;6.05;;;;;;;;;;4948917;28;20105;-68
2022/05/13 03:06:30;;;;;;;8.85;5.95;;;;;;;;;;4957612;28;20031;-67
2022/05/13 03:08:56;;;;;;;6.88;5.68;;;;;;;;;;4932291;28;20042;-68
2022/05/13 03:11:22;;;;;;;8.07;5.70;;;;;;;;;;4949549;28;20039;-68
2022/05/13 03:13:49;;;;;;;11.13;6.82;;;;;;;;;;4949916;28;20078;-68
2022/05/13 03:16:23;;;;;;;7.43;5.80;;;;;;;;;;4950636;28;20093;-68
2022/05/13 03:18:52;;;;;;;9.32;5.57;;;;;;;;;;4950097;28;20039;-67
2022/05/13 03:21:18;;;;;;;6.57;5.50;;;;;;;;;;4953713;28;20077;-68
2022/05/13 03:23:44;;;;;;;10.15;6.05;;;;;;;;;;4949200;28;20062;-69
2022/05/13 03:26:14;;;;;;;6.50;5.80;;;;;;;;;;4945161;28;20403;-68
2022/05/13 03:28:40;;;;;;;10.73;5.47;;;;;;;;;;4950608;28;20038;-68
2022/05/13 03:31:05;;;;;;;5.97;5.32;;;;;;;;;;4948226;28;20037;-68
2022/05/13 03:33:31;;;;;;;6.10;5.00;;;;;;;;;;4946878;28;20542;-68
2022/05/13 03:35:57;;;;;;;7.65;5.95;;;;;;;;;;4948135;28;20894;-68
2022/05/13 03:38:22;;;;;;;7.68;5.82;;;;;;;;;;4949358;28;20043;-68
2022/05/13 03:40:48;;;;;;;10.82;5.60;;;;;;;;;;4942417;28;20687;-68
2022/05/13 03:43:15;;;;;;;11.05;5.88;;;;;;;;;;4946638;28;20039;-68
2022/05/13 03:45:41;;;;;;;9.70;5.90;;;;;;;;;;4926515;28;20952;-69
2022/05/13 03:48:07;;;;;;;11.32;6.22;;;;;;;;;;4925910;28;20031;-69
2022/05/13 03:50:34;;;;;;;10.57;7.05;;;;;;;;;;4946788;28;20974;-68
2022/05/13 03:53:02;;;;;;;8.73;7.22;;;;;;;;;;4931034;28;20034;-68
2022/05/13 03:55:28;;;;;;;9.77;7.05;;;;;;;;;;4944396;28;20061;-69
2022/05/13 03:57:54;;;;;;;9.48;6.72;;;;;;;;;;4947503;28;20046;-68
2022/05/13 04:00:21;;;;;;;10.32;5.90;;;;;;;;;;4950436;28;20049;-68
2022/05/13 04:02:47;;;;;;;6.43;5.20;;;;;;;;;;4930677;28;20126;-71
2022/05/13 04:10:41;;;;;;;9.25;5.20;;;;;;;;;;4942736;28;20042;-69
2022/05/13 04:16:06;;;;;;;8.18;5.10;;;;;;;;;;4943370;28;20042;-69
2022/05/13 04:18:40;;;;;;;9.95;5.60;;;;;;;;;;4942486;28;20031;-69
2022/05/13 04:21:10;;;;;;;11.23;5.18;;;;;;;;;;4942707;28;20138;-69
2022/05/13 04:23:38;;;;;;;7.78;5.30;;;;;;;;;;4940706;28;20053;-69
2022/05/13 04:26:03;;;;;;;9.05;5.47;;;;;;;;;;4943007;28;20134;-69
2022/05/13 04:28:29;;;;;;;10.90;5.75;;;;;;;;;;4942329;28;20150;-69
2022/05/13 04:30:55;;;;;;;8.95;5.88;;;;;;;;;;4943845;28;20079;-69
2022/05/13 04:33:20;;;;;;;7.80;6.00;;;;;;;;;;4946086;28;20054;-68
2022/05/13 04:35:46;;;;;;;11.80;5.55;;;;;;;;;;4952714;28;20607;-69
2022/05/13 04:38:11;;;;;;;6.70;5.75;;;;;;;;;;4946697;28;20046;-69
2022/05/13 04:40:37;;;;;;;7.97;5.50;;;;;;;;;;4947739;28;20117;-69
2022/05/13 04:43:03;;;;;;;9.75;6.13;;;;;;;;;;4951253;28;20039;-69
2022/05/13 04:45:30;;;;;;;8.25;5.68;;;;;;;;;;4950493;28;20050;-68
2022/05/13 04:48:17;;;;;;;12.45;6.43;;;;;;;;;;4945089;28;20043;-69
2022/05/13 04:50:46;;;;;;;7.88;5.30;;;;;;;;;;4949954;28;20507;-69
2022/05/13 04:53:12;;;;;;;7.63;5.00;;;;;;;;;;4945077;28;20035;-68
2022/05/13 04:55:39;;;;;;;11.95;5.63;;;;;;;;;;4948672;28;20035;-68
2022/05/13 04:58:05;;;;;;;6.85;5.70;;;;;;;;;;4949391;28;20043;-69
2022/05/13 05:00:30;;;;;;;8.00;5.53;;;;;;;;;;4946248;28;20031;-69
2022/05/13 05:02:56;;;;;;;6.57;4.90;;;;;;;;;;4948234;28;20042;-69
2022/05/13 05:05:22;;;;;;;8.68;5.70;;;;;;;;;;4952328;28;20116;-69
2022/05/13 05:07:47;;;;;;;6.97;5.55;;;;;;;;;;4955953;28;20049;-70
2022/05/13 05:10:13;;;;;;;5.70;5.13;;;;;;;;;;4954761;28;20119;-70
2022/05/13 05:12:39;;;;;;;6.00;5.40;;;;;;;;;;4945427;28;20038;-71
2022/05/13 05:15:06;;;;;;;9.25;5.18;;;;;;;;;;4945961;28;20376;-70
2022/05/13 05:17:32;;;;;;;9.00;5.10;;;;;;;;;;4945749;28;20030;-70
2022/05/13 05:19:57;;;;;;;6.75;5.32;;;;;;;;;;4948174;28;20452;-70
2022/05/13 05:22:23;;;;;;;6.43;5.25;;;;;;;;;;4943320;28;20070;-70
2022/05/13 05:24:48;;;;;;;8.57;5.60;;;;;;;;;;4943927;28;20062;-70
2022/05/13 05:27:13;;;;;;;7.53;5.07;;;;;;;;;;4943370;28;20100;-70
2022/05/13 05:29:39;;;;;;;10.88;5.53;;;;;;;;;;4942965;28;20039;-70
2022/05/13 05:32:05;;;;;;;7.43;4.80;;;;;;;;;;4945558;28;20045;-70
2022/05/13 05:34:31;;;;;;;6.80;5.05;;;;;;;;;;4948652;28;20050;-69
2022/05/13 05:36:56;;;;;;;7.93;5.18;;;;;;;;;;4950374;28;20141;-70
2022/05/13 05:39:22;;;;;;;6.25;4.72;;;;;;;;;;4948204;28;20043;-70
2022/05/13 05:41:47;;;;;;;6.78;5.00;;;;;;;;;;4929080;28;20436;-70
2022/05/13 05:44:13;;;;;;;5.82;4.72;;;;;;;;;;4946747;28;20112;-70
2022/05/13 05:46:38;;;;;;;10.18;4.88;;;;;;;;;;4945603;28;20046;-70
2022/05/13 05:49:04;;;;;;;8.65;4.90;;;;;;;;;;4944787;28;20035;-70
2022/05/13 05:51:30;;;;;;;9.23;5.20;;;;;;;;;;4952730;28;20062;-70
2022/05/13 05:59:24;;;;;;;7.53;4.70;;;;;;;;;;4943536;28;20062;-73
2022/05/13 06:01:50;;;;;;;5.55;4.93;;;;;;;;;;4941759;28;20067;-72
2022/05/13 06:04:15;;;;;;;6.55;4.65;;;;;;;;;;4958557;28;20042;-75
2022/05/13 06:06:41;;;;;;;6.60;4.45;;;;;;;;;;4956201;28;20039;-74
2022/05/13 06:09:08;;;;;;;6.13;5.18;;;;;;;;;;4949545;28;20047;-74
2022/05/13 06:11:34;;;;;;;7.45;5.03;;;;;;;;;;4943304;28;20043;-74
2022/05/13 06:13:59;;;;;;;8.27;5.00;;;;;;;;;;4955325;28;20098;-74
2022/05/13 06:16:27;;;;;;;6.00;5.10;;;;;;;;;;4944956;28;20605;-75
2022/05/13 06:18:54;;;;;;;8.63;5.25;;;;;;;;;;4944153;28;20039;-74
2022/05/13 06:21:20;;;;;;;7.18;5.60;;;;;;;;;;4943851;28;21159;-73
2022/05/13 06:23:45;;;;;;;11.18;5.22;;;;;;;;;;4942198;28;20042;-73
2022/05/13 06:26:11;;;;;;;8.82;5.25;;;;;;;;;;4944258;28;20050;-73
2022/05/13 06:28:36;;;;;;;8.55;5.40;;;;;;;;;;4946904;28;20035;-71
2022/05/13 06:31:01;;;;;;;9.65;5.47;;;;;;;;;;4958944;28;20054;-72
2022/05/13 06:33:27;;;;;;;6.00;5.00;;;;;;;;;;4955914;28;20053;-71
2022/05/13 06:35:53;;;;;;;7.90;5.35;;;;;;;;;;4957808;28;20035;-71
2022/05/13 06:38:22;;;;;;;6.32;4.88;;;;;;;;;;4954403;28;20073;-71
2022/05/13 06:40:52;;;;;;;18.55;5.28;;;;;;;;;;4950271;28;20043;-72
2022/05/13 06:43:18;;;;;;;8.63;5.75;;;;;;;;;;4945694;28;20049;-72
2022/05/13 06:45:44;;;;;;;12.25;6.13;;;;;;;;;;4947048;28;20035;-72
2022/05/13 06:48:10;;;;;;;5.70;5.13;;;;;;;;;;4951103;28;20043;-72
2022/05/13 06:50:37;;;;;;;5.55;4.78;;;;;;;;;;4955382;28;20042;-72
2022/05/13 06:53:03;;;;;;;7.18;4.68;;;;;;;;;;4941037;28;20052;-73
2022/05/13 06:55:29;;;;;;;8.20;5.05;;;;;;;;;;4943546;28;20043;-72
2022/05/13 06:57:55;;;;;;;6.25;5.40;;;;;;;;;;4951117;28;20058;-75
2022/05/13 07:00:20;;;;;;;9.32;4.90;;;;;;;;;;4951803;28;20139;-71
2022/05/13 07:02:46;;;;;;;5.85;5.07;;;;;;;;;;4947923;28;20920;-72
2022/05/13 07:05:13;;;;;;;5.97;5.30;;;;;;;;;;4953396;28;20396;-71
2022/05/13 07:07:39;;;;;;;5.80;4.90;;;;;;;;;;4950353;28;20031;-72
2022/05/13 07:10:05;;;;;;;5.68;5.07;;;;;;;;;;4952981;28;20106;-72
2022/05/13 07:12:32;;;;;;;6.38;5.07;;;;;;;;;;4949333;28;20039;-72
2022/05/13 07:14:58;;;;;;;6.93;5.30;;;;;;;;;;4926678;28;20041;-73
2022/05/13 07:17:24;;;;;;;8.40;5.50;;;;;;;;;;4945914;28;20043;-72
2022/05/13 07:19:50;;;;;;;6.50;5.00;;;;;;;;;;4948840;28;20133;-73
2022/05/13 07:22:15;;;;;;;5.80;5.30;;;;;;;;;;4951560;28;20117;-72
2022/05/13 07:24:40;;;;;;;8.95;5.55;;;;;;;;;;4943653;28;20696;-71
2022/05/13 07:27:06;;;;;;;7.38;5.28;;;;;;;;;;4953936;28;20073;-72
2022/05/13 07:29:32;;;;;;;6.60;5.03;;;;;;;;;;4948944;28;20039;-73
2022/05/13 07:31:58;;;;;;;7.95;5.32;;;;;;;;;;4950161;28;20062;-71
2022/05/13 07:34:24;;;;;;;9.73;5.60;;;;;;;;;;4935474;28;20038;-73
2022/05/13 07:36:53;;;;;;;5.78;5.18;;;;;;;;;;4947273;28;20094;-73
2022/05/13 07:42:07;;;;;;;6.38;5.13;;;;;;;;;;4944036;28;20035;-73
2022/05/13 07:44:34;;;;;;;7.75;5.30;;;;;;;;;;4945439;28;20502;-72
2022/05/13 07:47:00;;;;;;;8.93;5.07;;;;;;;;;;4948688;28;20954;-71
2022/05/13 07:49:25;;;;;;;5.20;4.70;;;;;;;;;;4943597;28;20043;-71
2022/05/13 07:51:51;;;;;;;5.90;5.03;;;;;;;;;;4952205;28;20106;-73
2022/05/13 07:54:16;;;;;;;6.28;4.68;;;;;;;;;;4932309;28;20495;-72
2022/05/13 07:56:41;;;;;;;8.65;5.20;;;;;;;;;;4945905;28;20495;-72
2022/05/13 07:59:07;;;;;;;7.03;5.10;;;;;;;;;;4945659;28;20053;-72
2022/05/13 08:01:33;;;;;;;9.38;5.65;;;;;;;;;;4948651;28;20026;-74
2022/05/13 08:03:59;;;;;;;13.60;6.07;;;;;;;;;;4947638;28;20443;-74
2022/05/13 08:06:24;;;;;;;6.75;5.82;;;;;;;;;;4953815;28;20039;-75
2022/05/13 08:08:55;;;;;;;6.10;5.13;;;;;;;;;;4948989;28;20035;-75
2022/05/13 08:11:22;;;;;;;7.43;5.95;;;;;;;;;;4930652;28;20035;-74
2022/05/13 08:13:48;;;;;;;11.43;5.72;;;;;;;;;;4948997;28;20117;-73
2022/05/13 08:16:18;;;;;;;7.97;6.10;;;;;;;;;;4950938;28;20126;-72
2022/05/13 08:18:46;;;;;;;6.65;5.53;;;;;;;;;;4946720;28;20035;-73
2022/05/13 08:21:12;;;;;;;6.60;4.97;;;;;;;;;;4944095;28;20077;-72
2022/05/13 08:23:37;;;;;;;4.93;4.47;;;;;;;;;;4925105;28;20523;-72
2022/05/13 08:26:04;;;;;;;5.72;4.88;;;;;;;;;;4949384;28;20042;-72
2022/05/13 08:28:30;;;;;;;5.38;4.63;;;;;;;;;;4934420;28;20057;-72
2022/05/13 08:30:56;;;;;;;7.88;5.10;;;;;;;;;;4945140;28;20496;-73
2022/05/13 08:33:21;;;;;;;6.82;4.88;;;;;;;;;;4948242;28;20070;-71
2022/05/13 08:35:50;;;;;;;6.20;4.68;;;;;;;;;;4949995;28;20040;-72
2022/05/13 08:38:18;;;;;;;6.80;4.32;;;;;;;;;;4953506;28;20097;-71
2022/05/13 08:40:50;;;;;;;7.05;5.40;;;;;;;;;;4941466;28;20145;-71
2022/05/13 08:43:36;;;;;;;;;;;;;;;;;;4951428;28;20412;-71
2022/05/13 08:46:28;;;;;;;7.07;4.90;;;;;;;;;;4937678;28;20454;-71
2022/05/13 08:49:07;;;;;;;5.18;4.53;;;;;;;;;;4952389;28;20098;-71
2022/05/13 08:51:55;;;;;;;6.40;4.70;;;;;;;;;;4953599;28;20035;-71
2022/05/13 08:54:26;;;;;;;6.20;4.00;;;;;;;;;;4938284;28;20584;-71
2022/05/13 08:56:55;;;;;;;5.05;3.95;;;;;;;;;;4952150;28;20427;-72
2022/05/13 08:59:26;;;;;;;10.25;3.85;;;;;;;;;;4946617;28;20051;-72
2022/05/13 09:01:57;;;;;;;4.35;3.95;;;;;;;;;;4924482;28;20081;-72
2022/05/13 09:04:33;;;;;;;7.82;4.65;;;;;;;;;;4930588;28;20070;-72
2022/05/13 09:07:03;;;;;;;4.07;3.67;;;;;;;;;;4946372;28;20055;-72
2022/05/13 09:09:28;;;;;;;6.75;3.72;;;;;;;;;;4953620;28;20035;-71
2022/05/13 09:12:05;;;;;;;4.38;3.60;;;;;;;;;;4951317;28;20034;-72
2022/05/13 09:14:43;;;;;;;3.88;3.30;;;;;;;;;;4949270;28;20036;-71
2022/05/13 09:17:21;;;;;;;6.05;3.40;;;;;;;;;;4956245;28;20093;-70
2022/05/13 09:19:52;;;;;;;5.38;3.17;;;;;;;;;;4954308;28;20121;-69
2022/05/13 09:22:17;;;;;;;5.18;2.95;;;;;;;;;;4949831;28;20051;-70
2022/05/13 09:24:45;;;;;;;6.07;3.22;;;;;;;;;;4957903;28;20039;-70
2022/05/13 09:27:10;;;;;;;3.95;3.05;;;;;;;;;;4951394;28;20173;-71
2022/05/13 09:29:44;;;;;;;5.75;3.40;;;;;;;;;;4954315;28;20038;-71
2022/05/13 09:32:21;;;;;;;5.40;3.00;;;;;;;;;;4950857;28;20062;-71
2022/05/13 09:34:58;;;;;;;6.82;3.20;;;;;;;;;;4957677;28;20034;-71
2022/05/13 09:37:26;;;;;;;6.95;3.40;;;;;;;;;;4955879;28;20129;-71
2022/05/13 09:40:18;;;;;;;5.03;4.00;;;;;;;;;;4954779;28;20035;-70
2022/05/13 09:42:46;;;;;;;6.68;3.70;;;;;;;;;;4952428;28;20460;-71
2022/05/13 09:45:31;;;;;;;5.78;3.90;;;;;;;;;;4953650;28;20096;-71
2022/05/13 09:48:05;;;;;;;4.68;4.20;;;;;;;;;;4955911;28;20030;-71
2022/05/13 09:50:43;;;;;;;10.25;4.00;;;;;;;;;;4957699;28;20653;-71
2022/05/13 09:53:21;;;;;;;6.68;4.40;;;;;;;;;;4952809;28;20089;-69
2022/05/13 09:55:48;;;;;;;5.90;4.47;;;;;;;;;;4947817;28;20104;-70
2022/05/13 09:58:18;;;;;;;7.40;4.25;;;;;;;;;;4957596;28;20034;-71
2022/05/13 10:00:46;;;;;;;8.20;4.38;;;;;;;;;;4951634;28;20070;-71
2022/05/13 10:03:21;;;;;;;6.85;4.85;;;;;;;;;;4952374;28;20035;-70
2022/05/13 10:05:53;;;;;;;6.53;4.43;;;;;;;;;;4944888;28;20063;-68
2022/05/13 10:08:23;;;;;;;7.78;5.03;;;;;;;;;;4943217;28;20035;-68
2022/05/13 10:14:00;;;;;;;12.35;5.25;;;;;;;;;;4953188;28;20046;-68
2022/05/13 10:16:44;;;;;;;11.07;3.50;;;;;;;;;;4948959;28;20977;-69
2022/05/13 10:19:11;;;;;;;11.10;3.92;;;;;;;;;;4949453;28;20039;-68
2022/05/13 10:21:48;;;;;;;3.95;3.10;;;;;;;;;;4951559;28;20082;-68
2022/05/13 10:24:37;;;;;;;15.98;3.28;;;;;;;;;;4951581;28;20077;-68
2022/05/13 10:27:03;;;;;;;24.15;5.53;;;;;;;;;;4951712;28;20047;-69
2022/05/13 10:29:46;;;;;;;21.00;4.68;;;;;;;;;;4945335;28;20043;-68
2022/05/13 10:32:25;;;;;;;7.10;4.70;;;;;;;;;;4952431;28;20026;-68
2022/05/13 10:34:54;;;;;;;13.55;5.10;;;;;;;;;;4956610;28;20035;-69
2022/05/13 10:37:48;;;;;;;6.22;5.07;;;;;;;;;;4954428;28;20049;-68
2022/05/13 10:40:18;;;;;;;8.65;5.03;;;;;;;;;;4952560;28;20412;-69
2022/05/13 10:43:01;;;;;;;6.55;5.30;;;;;;;;;;4950362;28;20031;-71
2022/05/13 10:45:30;;;;;;;11.25;5.30;;;;;;;;;;4953572;28;20077;-71
2022/05/13 10:48:06;;;;;;;6.40;5.38;;;;;;;;;;4947684;28;20158;-68
2022/05/13 10:50:51;;;;;;;8.60;5.25;;;;;;;;;;4950052;28;20045;-68
2022/05/13 10:53:35;;;;;;;6.20;4.22;;;;;;;;;;4953275;28;20404;-71
2022/05/13 10:56:22;;;;;;;5.18;3.55;;;;;;;;;;4951751;28;20046;-72
2022/05/13 10:59:05;;;;;;;3.10;2.88;;;;;;;;;;4947196;28;20050;-72
2022/05/13 11:01:40;;;;;;;7.22;3.60;;;;;;;;;;4950094;28;20110;-71
2022/05/13 11:04:15;;;;;;;4.50;3.05;;;;;;;;;;4947712;28;20118;-70
2022/05/13 11:06:50;;;;;;;4.68;2.67;;;;;;;;;;4953493;28;20039;-71
2022/05/13 11:09:42;;;;;;;4.18;2.97;;;;;;;;;;4944151;28;20049;-70
2022/05/13 11:12:23;;;;;;;6.63;2.92;;;;;;;;;;4949716;28;20686;-73
2022/05/13 11:15:15;;;;;;;6.40;3.17;;;;;;;;;;4956002;28;20049;-70
2022/05/13 11:18:01;;;;;;;3.53;2.60;;;;;;;;;;4926245;28;20081;-69
2022/05/13 11:20:52;;;;;;;3.75;2.80;;;;;;;;;;4950566;28;21057;-70
2022/05/13 11:23:21;;;;;;;3.83;2.27;;;;;;;;;;4943161;28;20078;-70
2022/05/13 11:26:13;;;;;;;5.85;2.65;;;;;;;;;;4953617;28;20290;-69
2022/05/13 11:29:02;;;;;;;7.93;3.35;;;;;;;;;;4957873;28;20681;-69
2022/05/13 11:31:27;;;;;;;5.68;2.47;;;;;;;;;;4949610;28;20500;-69
2022/05/13 11:34:02;;;;;;;4.20;2.40;;;;;;;;;;4919360;28;20035;-70
2022/05/13 11:36:42;;;;;;;2.78;2.45;;;;;;;;;;4949523;28;20034;-72
2022/05/13 11:39:12;;;;;;;3.83;2.70;;;;;;;;;;4952973;28;20042;-70
2022/05/13 11:41:48;;;;;;;2.95;2.55;;;;;;;;;;4929191;28;20035;-73
2022/05/13 11:44:17;;;;;;;6.05;2.53;;;;;;;;;;4949150;28;20480;-73
2022/05/13 11:46:59;;;;;;;4.47;2.83;;;;;;;;;;4952428;28;20101;-73
2022/05/13 11:49:29;;;;;;;3.22;2.92;;;;;;;;;;4949451;28;20047;-72
2022/05/13 11:52:02;;;;;;;2.90;2.53;;;;;;;;;;4948401;28;20035;-70
2022/05/13 11:54:29;;;;;;;5.15;2.58;;;;;;;;;;4949582;28;20089;-68
2022/05/13 11:57:18;;;;;;;4.90;3.00;;;;;;;;;;4949506;28;20039;-67
2022/05/13 11:59:48;;;;;;;5.72;3.10;;;;;;;;;;4951339;28;20042;-69
2022/05/13 12:02:27;;;;;;;3.25;2.50;;;;;;;;;;4944982;28;20035;-71
2022/05/13 12:05:04;;;;;;;2.95;2.42;;;;;;;;;;4948819;28;20134;-72
2022/05/13 12:08:03;;;;;;;3.67;2.45;;;;;;;;;;4953437;28;21051;-71
2022/05/13 12:10:48;;;;;;;3.33;2.95;;;;;;;;;;4947256;28;20039;-71
2022/05/13 12:13:39;;;;;;;2.55;2.30;;;;;;;;;;4948415;28;20031;-70
2022/05/13 12:16:17;;;;;;;4.05;2.55;;;;;;;;;;4915532;28;20036;-71
2022/05/13 12:19:08;;;;;;;2.67;2.47;;;;;;;;;;4952656;28;20105;-71
2022/05/13 12:21:44;;;;;;;2.70;2.50;;;;;;;;;;4951072;28;20481;-70
2022/05/13 12:24:10;;;;;;;3.60;2.60;;;;;;;;;;4948860;28;20740;-70
2022/05/13 12:26:50;;;;;;;2.60;2.38;;;;;;;;;;4950334;28;20034;-71
2022/05/13 12:29:19;;;;;;;2.58;2.38;;;;;;;;;;4952603;28;20114;-73
2022/05/13 12:32:05;;;;;;;3.50;2.60;;;;;;;;;;4954124;28;20037;-71
2022/05/13 12:37:58;;;;;;;3.70;2.88;;;;;;;;;;4947774;28;20500;-71
2022/05/13 12:40:24;;;;;;;4.25;2.70;;;;;;;;;;4951961;28;20050;-72
2022/05/13 12:42:52;;;;;;;4.20;2.70;;;;;;;;;;4948815;28;20030;-70
2022/05/13 12:45:21;;;;;;;4.00;2.53;;;;;;;;;;4944305;28;20043;-70
2022/05/13 12:48:04;;;;;;;2.60;2.30;;;;;;;;;;4954651;28;20039;-70
2022/05/13 12:50:38;;;;;;;2.30;2.10;;;;;;;;;;4952091;28;20039;-70
2022/05/13 12:53:29;;;;;;;3.35;2.35;;;;;;;;;;4952876;28;20039;-69
2022/05/13 12:56:01;;;;;;;2.47;2.03;;;;;;;;;;4937755;28;20410;-70
2022/05/13 12:58:29;;;;;;;3.40;2.00;;;;;;;;;;4962217;28;20038;-71
2022/05/13 13:00:56;;;;;;;3.78;2.55;;;;;;;;;;4933880;28;20566;-69
2022/05/13 13:03:22;;;;;;;2.40;2.20;;;;;;;;;;4946884;28;20043;-70
2022/05/13 13:05:59;;;;;;;3.92;2.15;;;;;;;;;;4955751;28;20027;-71
2022/05/13 13:08:33;;;;;;;3.05;2.10;;;;;;;;;;4953440;28;20035;-70
2022/05/13 13:11:33;;;;;;;2.40;2.20;;;;;;;;;;4952531;28;20031;-71
2022/05/13 13:14:26;;;;;;;2.40;2.20;;;;;;;;;;4950810;28;20165;-70
2022/05/13 13:17:06;;;;;;;2.70;2.28;;;;;;;;;;4952373;28;20436;-70
2022/05/13 13:19:32;;;;;;;4.07;2.80;;;;;;;;;;4942465;28;20121;-69
2022/05/13 13:22:13;;;;;;;3.67;2.63;;;;;;;;;;4950207;28;20035;-70
2022/05/13 13:24:39;;;;;;;;;;;;;;;;;;4957807;28;20031;-71
2022/05/13 13:27:07;;;;;;;4.00;2.70;;;;;;;;;;4926520;28;19933;-69
2022/05/13 13:29:39;;;;;;;3.85;2.80;;;;;;;;;;4953891;28;20046;-70
2022/05/13 13:32:11;;;;;;;5.60;2.60;;;;;;;;;;4951519;28;20035;-72
2022/05/13 13:34:39;;;;;;;3.75;2.92;;;;;;;;;;4953735;28;20457;-71
2022/05/13 13:37:13;;;;;;;7.57;2.60;;;;;;;;;;4929584;28;20130;-70
2022/05/13 13:39:38;;;;;;;3.45;2.95;;;;;;;;;;4955085;28;20035;-71
2022/05/13 13:42:12;;;;;;;5.65;2.70;;;;;;;;;;4938738;28;21065;-70
2022/05/13 13:44:41;;;;;;;3.58;2.75;;;;;;;;;;4955714;28;20037;-72
2022/05/13 13:47:12;;;;;;;5.82;2.85;;;;;;;;;;4953917;28;20062;-72
2022/05/13 13:49:40;;;;;;;4.88;3.13;;;;;;;;;;4955306;28;20027;-72
2022/05/13 13:52:31;;;;;;;4.97;3.13;;;;;;;;;;4935726;28;20070;-70
2022/05/13 13:55:01;;;;;;;4.47;3.03;;;;;;;;;;4955889;28;20416;-72
2022/05/13 13:57:47;;;;;;;5.35;3.33;;;;;;;;;;4952128;28;20510;-72
2022/05/13 14:00:29;;;;;;;8.60;3.55;;;;;;;;;;4958071;28;20046;-73
2022/05/13 14:03:02;;;;;;;;;;;;;;;;;;4959520;28;20092;-74
2022/05/13 14:05:32;;;;;;;4.03;2.90;;;;;;;;;;4949900;28;19964;-72
2022/05/13 14:07:58;;;;;;;6.20;3.10;;;;;;;;;;4954850;28;20495;-70
2022/05/13 14:10:34;;;;;;;3.25;2.95;;;;;;;;;;4960856;28;20038;-71
2022/05/13 14:13:05;;;;;;;6.57;3.10;;;;;;;;;;4954152;28;20081;-71
2022/05/13 14:15:33;;;;;;;6.73;3.23;;;;;;;;;;4952465;28;20066;-71
2022/05/13 14:17:58;;;;;;;4.30;3.03;;;;;;;;;;4958537;28;20187;-72
2022/05/13 14:20:36;;;;;;;3.40;2.92;;;;;;;;;;4953584;28;20126;-73
2022/05/13 14:23:07;;;;;;;4.45;2.72;;;;;;;;;;4953544;28;20046;-70
2022/05/13 14:25:40;;;;;;;4.85;3.10;;;;;;;;;;4955302;28;20089;-72
2022/05/13 14:28:08;;;;;;;4.13;3.70;;;;;;;;;;4954558;28;20039;-71
2022/05/13 14:30:35;;;;;;;4.43;3.45;;;;;;;;;;4952458;28;20552;-71
2022/05/13 14:33:01;;;;;;;6.00;3.08;;;;;;;;;;4954852;28;20039;-70
2022/05/13 14:35:30;;;;;;;4.00;3.50;;;;;;;;;;4950253;28;20039;-71
2022/05/13 14:38:02;;;;;;;4.07;3.20;;;;;;;;;;4957270;28;20470;-70
2022/05/13 14:40:48;;;;;;;3.30;3.00;;;;;;;;;;4951195;28;20034;-72
2022/05/13 14:43:27;;;;;;;5.45;2.88;;;;;;;;;;4958180;28;20038;-72
2022/05/13 14:46:08;;;;;;;4.38;3.08;;;;;;;;;;4962187;28;20034;-73
2022/05/13 14:48:33;;;;;;;4.40;2.97;;;;;;;;;;4955958;28;20042;-72
2022/05/13 14:51:11;;;;;;;4.93;3.05;;;;;;;;;;4954011;28;20097;-72
2022/05/13 14:53:55;;;;;;;3.95;2.80;;;;;;;;;;4942871;28;20043;-72
2022/05/13 14:56:21;;;;;;;4.25;2.55;;;;;;;;;;4953386;28;20139;-72
2022/05/13 14:58:56;;;;;;;4.63;2.72;;;;;;;;;;4956904;28;20039;-69
2022/05/13 15:01:36;;;;;;;8.90;3.17;;;;;;;;;;4947556;28;20034;-71
2022/05/13 15:04:16;;;;;;;9.90;3.47;;;;;;;;;;4947970;28;20039;-70
2022/05/13 15:06:48;;;;;;;3.33;2.70;;;;;;;;;;4948550;28;20057;-73
2022/05/13 15:09:25;;;;;;;4.15;2.83;;;;;;;;;;4948210;28;20038;-71
2022/05/13 15:11:59;;;;;;;4.40;3.25;;;;;;;;;;4951858;28;20508;-75
2022/05/13 15:14:26;;;;;;;4.90;2.90;;;;;;;;;;4956503;28;20030;-73
2022/05/13 15:16:53;;;;;;;7.75;3.10;;;;;;;;;;4954203;28;20049;-72
2022/05/13 15:19:28;;;;;;;3.15;2.75;;;;;;;;;;4945498;28;20428;-69
2022/05/13 15:22:00;;;;;;;9.57;3.30;;;;;;;;;;4952502;28;20039;-72
2022/05/13 15:24:28;;;;;;;4.82;3.03;;;;;;;;;;4952463;28;20049;-72
2022/05/13 15:26:54;;;;;;;3.53;2.70;;;;;;;;;;4953576;28;20095;-71
2022/05/13 15:29:20;;;;;;;7.45;2.40;;;;;;;;;;4943358;28;20049;-71